sensor_id;sensor_type;location;lat;lon;timestamp;pressure;altitude;pressure_sealevel;temperature;humidity
79540;BME280;68991;52.122;5.406;2023-09-08T00:02:12;101874.31;;;23.35;64.18
79540;BME280;68991;52.122;5.406;2023-09-08T00:04:38;101875.31;;;23.34;64.10
79540;BME280;68991;52.122;5.406;2023-09-08T00:07:05;101868.94;;;23.33;64.14
79540;BME280;68991;52.122;5.406;2023-09-08T00:09:31;101874.44;;;23.33;64.02
79540;BME280;68991;52.122;5.406;2023-09-08T00:11:58;101868.06;;;23.33;64.02
79540;BME280;68991;52.122;5.406;2023-09-08T00:14:25;101867.19;;;23.32;64.00
79540;BME280;68991;52.122;5.406;2023-09-08T00:16:52;101860.00;;;23.31;64.08
79540;BME280;68991;52.122;5.406;2023-09-08T00:19:21;101865.47;;;23.31;64.08
79540;BME280;68991;52.122;5.406;2023-09-08T00:21:49;101866.47;;;23.30;63.95
79540;BME280;68991;52.122;5.406;2023-09-08T00:24:16;101877.47;;;23.30;63.89
79540;BME280;68991;52.122;5.406;2023-09-08T00:26:44;101867.47;;;23.29;63.90
79540;BME280;68991;52.122;5.406;2023-09-08T00:29:10;101878.44;;;23.29;63.89
79540;BME280;68991;52.122;5.406;2023-09-08T00:31:37;101870.38;;;23.27;63.84
79540;BME280;68991;52.122;5.406;2023-09-08T00:34:03;101874.97;;;23.27;63.88
79540;BME280;68991;52.122;5.406;2023-09-08T00:36:30;101869.50;;;23.27;63.90
79540;BME280;68991;52.122;5.406;2023-09-08T00:38:56;101874.97;;;23.27;63.82
79540;BME280;68991;52.122;5.406;2023-09-08T00:41:23;101873.22;;;23.26;63.87
79540;BME280;68991;52.122;5.406;2023-09-08T00:43:50;101868.72;;;23.25;63.72
79540;BME280;68991;52.122;5.406;2023-09-08T00:46:17;101871.47;;;23.25;63.84
79540;BME280;68991;52.122;5.406;2023-09-08T00:48:44;101876.97;;;23.25;63.82
79540;BME280;68991;52.122;5.406;2023-09-08T00:51:11;101871.63;;;23.23;63.41
79540;BME280;68991;52.122;5.406;2023-09-08T00:53:37;101870.75;;;23.23;63.71
79540;BME280;68991;52.122;5.406;2023-09-08T00:56:04;101871.75;;;23.22;63.74
79540;BME280;68991;52.122;5.406;2023-09-08T00:58:31;101869.00;;;23.22;63.66
79540;BME280;68991;52.122;5.406;2023-09-08T01:00:58;101869.13;;;23.20;63.68
79540;BME280;68991;52.122;5.406;2023-09-08T01:03:25;101865.53;;;23.20;63.72
79540;BME280;68991;52.122;5.406;2023-09-08T01:05:52;101866.53;;;23.19;63.72
79540;BME280;68991;52.122;5.406;2023-09-08T01:08:19;101861.91;;;23.19;63.51
79540;BME280;68991;52.122;5.406;2023-09-08T01:10:46;101861.03;;;23.19;63.59
79540;BME280;68991;52.122;5.406;2023-09-08T01:13:13;101861.16;;;23.17;63.67
79540;BME280;68991;52.122;5.406;2023-09-08T01:15:39;101854.81;;;23.17;63.59
79540;BME280;68991;52.122;5.406;2023-09-08T01:18:06;101855.81;;;23.16;63.63
79540;BME280;68991;52.122;5.406;2023-09-08T01:20:55;101864.94;;;23.16;63.74
79540;BME280;68991;52.122;5.406;2023-09-08T01:24:11;101864.19;;;23.14;63.58
79540;BME280;68991;52.122;5.406;2023-09-08T01:26:44;101858.69;;;23.14;63.44
79540;BME280;68991;52.122;5.406;2023-09-08T01:29:12;101865.16;;;23.13;63.43
79540;BME280;68991;52.122;5.406;2023-09-08T01:31:39;101860.72;;;23.12;63.43
79540;BME280;68991;52.122;5.406;2023-09-08T01:34:08;101859.94;;;23.10;63.51
79540;BME280;68991;52.122;5.406;2023-09-08T01:36:35;101853.59;;;23.10;63.47
79540;BME280;68991;52.122;5.406;2023-09-08T01:39:02;101855.50;;;23.09;63.33
79540;BME280;68991;52.122;5.406;2023-09-08T01:41:29;101859.22;;;23.08;63.31
79540;BME280;68991;52.122;5.406;2023-09-08T01:43:58;101869.31;;;23.08;63.31
79540;BME280;68991;52.122;5.406;2023-09-08T01:46:25;101863.84;;;23.08;63.39
79540;BME280;68991;52.122;5.406;2023-09-08T01:48:51;101859.34;;;23.07;63.47
79540;BME280;68991;52.122;5.406;2023-09-08T01:51:17;101860.38;;;23.06;63.08
79540;BME280;68991;52.122;5.406;2023-09-08T01:53:44;101860.38;;;23.06;63.41
79540;BME280;68991;52.122;5.406;2023-09-08T01:56:10;101852.25;;;23.04;63.36
79540;BME280;68991;52.122;5.406;2023-09-08T01:58:37;101855.00;;;23.04;63.26
79540;BME280;68991;52.122;5.406;2023-09-08T02:01:04;101856.88;;;23.04;63.18
79540;BME280;68991;52.122;5.406;2023-09-08T02:03:32;101855.13;;;23.03;63.41
79540;BME280;68991;52.122;5.406;2023-09-08T02:05:59;101854.28;;;23.02;63.20
79540;BME280;68991;52.122;5.406;2023-09-08T02:08:26;101863.50;;;23.01;63.27
79540;BME280;68991;52.122;5.406;2023-09-08T02:10:52;101862.63;;;23.01;63.37
79540;BME280;68991;52.122;5.406;2023-09-08T02:13:19;101855.38;;;23.00;63.23
79540;BME280;68991;52.122;5.406;2023-09-08T02:15:45;101854.50;;;22.99;62.69
79540;BME280;68991;52.122;5.406;2023-09-08T02:18:12;101853.66;;;22.99;63.16
79540;BME280;68991;52.122;5.406;2023-09-08T02:20:39;101865.63;;;22.98;63.17
79540;BME280;68991;52.122;5.406;2023-09-08T02:23:07;101854.78;;;22.96;62.94
79540;BME280;68991;52.122;5.406;2023-09-08T02:25:34;101850.19;;;22.97;63.07
79540;BME280;68991;52.122;5.406;2023-09-08T02:28:00;101853.91;;;22.96;63.02
79540;BME280;68991;52.122;5.406;2023-09-08T02:30:27;101848.41;;;22.96;63.04
79540;BME280;68991;52.122;5.406;2023-09-08T02:32:53;101846.72;;;22.95;63.01
79540;BME280;68991;52.122;5.406;2023-09-08T02:35:23;101850.44;;;22.94;63.01
79540;BME280;68991;52.122;5.406;2023-09-08T02:37:50;101850.44;;;22.94;63.01
79540;BME280;68991;52.122;5.406;2023-09-08T02:40:17;101844.22;;;22.92;62.94
79540;BME280;68991;52.122;5.406;2023-09-08T02:42:43;101852.47;;;22.92;62.62
79540;BME280;68991;52.122;5.406;2023-09-08T02:45:10;101847.97;;;22.91;63.00
79540;BME280;68991;52.122;5.406;2023-09-08T02:47:36;101846.22;;;22.90;62.86
79540;BME280;68991;52.122;5.406;2023-09-08T02:50:03;101848.97;;;22.90;63.01
79540;BME280;68991;52.122;5.406;2023-09-08T02:52:31;101852.69;;;22.89;62.86
79540;BME280;68991;52.122;5.406;2023-09-08T02:54:57;101850.97;;;22.88;63.03
79540;BME280;68991;52.122;5.406;2023-09-08T02:57:24;101848.22;;;22.88;62.79
79540;BME280;68991;52.122;5.406;2023-09-08T02:59:50;101850.22;;;22.86;63.01
79540;BME280;68991;52.122;5.406;2023-09-08T03:02:24;101856.56;;;22.86;62.70
79540;BME280;68991;52.122;5.406;2023-09-08T03:04:52;101855.84;;;22.84;62.77
79540;BME280;68991;52.122;5.406;2023-09-08T03:07:18;101854.09;;;22.83;62.81
79540;BME280;68991;52.122;5.406;2023-09-08T03:09:45;101860.47;;;22.84;62.90
79540;BME280;68991;52.122;5.406;2023-09-08T03:12:11;101850.63;;;22.81;62.88
79540;BME280;68991;52.122;5.406;2023-09-08T03:14:38;101856.97;;;22.81;62.72
79540;BME280;68991;52.122;5.406;2023-09-08T03:17:04;101847.00;;;22.80;62.45
79540;BME280;68991;52.122;5.406;2023-09-08T03:19:31;101853.50;;;22.79;62.73
79540;BME280;68991;52.122;5.406;2023-09-08T03:21:58;101852.63;;;22.79;62.55
79540;BME280;68991;52.122;5.406;2023-09-08T03:24:24;101847.13;;;22.79;62.48
79540;BME280;68991;52.122;5.406;2023-09-08T03:26:50;101842.78;;;22.76;62.53
79540;BME280;68991;52.122;5.406;2023-09-08T03:29:17;101841.91;;;22.76;62.58
79540;BME280;68991;52.122;5.406;2023-09-08T03:31:43;101841.03;;;22.75;62.49
79540;BME280;68991;52.122;5.406;2023-09-08T03:34:10;101839.28;;;22.74;62.64
79540;BME280;68991;52.122;5.406;2023-09-08T03:36:37;101834.84;;;22.73;62.54
79540;BME280;68991;52.122;5.406;2023-09-08T03:39:03;101832.09;;;22.73;62.52
79540;BME280;68991;52.122;5.406;2023-09-08T03:41:30;101835.81;;;22.72;62.37
79540;BME280;68991;52.122;5.406;2023-09-08T03:43:57;101832.09;;;22.73;62.15
79540;BME280;68991;52.122;5.406;2023-09-08T03:46:23;101830.06;;;22.75;62.66
79540;BME280;68991;52.122;5.406;2023-09-08T03:48:51;101826.34;;;22.76;62.46
79540;BME280;68991;52.122;5.406;2023-09-08T03:51:20;101822.59;;;22.77;62.67
79540;BME280;68991;52.122;5.406;2023-09-08T03:53:47;101829.81;;;22.78;62.68
79540;BME280;68991;52.122;5.406;2023-09-08T03:56:13;101821.31;;;22.81;62.63
79540;BME280;68991;52.122;5.406;2023-09-08T03:58:40;101822.34;;;22.80;62.53
79540;BME280;68991;52.122;5.406;2023-09-08T04:01:06;101824.06;;;22.81;62.92
79540;BME280;68991;52.122;5.406;2023-09-08T04:03:33;101823.22;;;22.81;62.75
79540;BME280;68991;52.122;5.406;2023-09-08T04:06:00;101824.06;;;22.81;62.90
79540;BME280;68991;52.122;5.406;2023-09-08T04:08:26;101824.94;;;22.82;63.01
79540;BME280;68991;52.122;5.406;2023-09-08T04:10:53;101829.53;;;22.81;62.90
79540;BME280;68991;52.122;5.406;2023-09-08T04:13:19;101820.84;;;22.65;58.75
79540;BME280;68991;52.122;5.406;2023-09-08T04:15:46;101821.75;;;22.12;58.23
79540;BME280;68991;52.122;5.406;2023-09-08T04:18:12;101826.22;;;21.79;58.38
79540;BME280;68991;52.122;5.406;2023-09-08T04:20:39;101831.91;;;21.54;58.92
79540;BME280;68991;52.122;5.406;2023-09-08T04:23:05;101825.41;;;21.33;59.01
79540;BME280;68991;52.122;5.406;2023-09-08T04:25:32;101830.84;;;21.11;59.64
79540;BME280;68991;52.122;5.406;2023-09-08T04:27:58;101830.41;;;20.93;60.60
79540;BME280;68991;52.122;5.406;2023-09-08T04:30:25;101827.72;;;20.80;60.66
79540;BME280;68991;52.122;5.406;2023-09-08T04:32:51;101823.22;;;20.68;61.02
79540;BME280;68991;52.122;5.406;2023-09-08T04:35:18;101827.09;;;20.53;61.55
79540;BME280;68991;52.122;5.406;2023-09-08T04:37:44;101830.97;;;20.38;62.15
79540;BME280;68991;52.122;5.406;2023-09-08T04:40:11;101832.53;;;20.17;62.68
79540;BME280;68991;52.122;5.406;2023-09-08T04:42:37;101826.03;;;20.07;62.71
79540;BME280;68991;52.122;5.406;2023-09-08T04:45:04;101832.19;;;19.98;62.75
79540;BME280;68991;52.122;5.406;2023-09-08T04:47:30;101835.78;;;19.85;63.54
79540;BME280;68991;52.122;5.406;2023-09-08T04:49:57;101835.25;;;19.80;63.24
79540;BME280;68991;52.122;5.406;2023-09-08T04:52:23;101832.22;;;19.72;63.57
79540;BME280;68991;52.122;5.406;2023-09-08T04:54:50;101833.66;;;19.65;63.63
79540;BME280;68991;52.122;5.406;2023-09-08T04:57:16;101837.00;;;19.56;63.95
79540;BME280;68991;52.122;5.406;2023-09-08T04:59:49;101834.81;;;19.49;64.15
79540;BME280;68991;52.122;5.406;2023-09-08T05:02:15;101838.97;;;19.42;64.28
79540;BME280;68991;52.122;5.406;2023-09-08T05:04:42;101836.00;;;19.32;64.51
79540;BME280;68991;52.122;5.406;2023-09-08T05:07:08;101841.09;;;19.24;65.03
79540;BME280;68991;52.122;5.406;2023-09-08T05:09:36;101840.56;;;19.19;65.29
79540;BME280;68991;52.122;5.406;2023-09-08T05:12:03;101839.25;;;19.12;65.37
79540;BME280;68991;52.122;5.406;2023-09-08T05:14:29;101834.78;;;19.11;65.42
79540;BME280;68991;52.122;5.406;2023-09-08T05:16:56;101830.50;;;19.07;65.49
79540;BME280;68991;52.122;5.406;2023-09-08T05:19:22;101835.44;;;19.02;65.54
79540;BME280;68991;52.122;5.406;2023-09-08T05:21:51;101828.66;;;18.95;65.84
79540;BME280;68991;52.122;5.406;2023-09-08T05:24:18;101834.72;;;18.85;66.04
79540;BME280;68991;52.122;5.406;2023-09-08T05:26:44;101831.34;;;18.82;66.36
79540;BME280;68991;52.122;5.406;2023-09-08T05:29:11;101835.16;;;18.79;66.41
79540;BME280;68991;52.122;5.406;2023-09-08T05:31:37;101838.19;;;18.75;66.57
79540;BME280;68991;52.122;5.406;2023-09-08T05:34:04;101843.19;;;18.68;66.80
79540;BME280;68991;52.122;5.406;2023-09-08T05:36:30;101842.28;;;18.68;66.91
79540;BME280;68991;52.122;5.406;2023-09-08T05:38:58;101845.03;;;18.68;67.06
79540;BME280;68991;52.122;5.406;2023-09-08T05:41:25;101840.44;;;18.68;66.99
79540;BME280;68991;52.122;5.406;2023-09-08T05:43:52;101838.59;;;18.69;67.00
79540;BME280;68991;52.122;5.406;2023-09-08T05:46:18;101849.50;;;18.69;67.18
79540;BME280;68991;52.122;5.406;2023-09-08T05:48:45;101848.84;;;18.65;67.47
79540;BME280;68991;52.122;5.406;2023-09-08T05:51:14;101848.84;;;18.65;67.51
79540;BME280;68991;52.122;5.406;2023-09-08T05:53:41;101850.69;;;18.65;67.87
79540;BME280;68991;52.122;5.406;2023-09-08T05:56:08;101856.13;;;18.65;68.19
79540;BME280;68991;52.122;5.406;2023-09-08T05:58:34;101857.66;;;18.69;68.33
79540;BME280;68991;52.122;5.406;2023-09-08T06:01:02;101857.47;;;18.72;68.83
79540;BME280;68991;52.122;5.406;2023-09-08T06:03:29;101858.25;;;18.74;68.96
79540;BME280;68991;52.122;5.406;2023-09-08T06:05:57;101862.59;;;18.76;68.87
79540;BME280;68991;52.122;5.406;2023-09-08T06:08:23;101857.16;;;18.76;69.18
79540;BME280;68991;52.122;5.406;2023-09-08T06:10:50;101861.44;;;18.80;69.33
79540;BME280;68991;52.122;5.406;2023-09-08T06:13:17;101868.09;;;18.89;69.18
79540;BME280;68991;52.122;5.406;2023-09-08T06:15:43;101867.47;;;18.98;69.35
79540;BME280;68991;52.122;5.406;2023-09-08T06:18:11;101869.75;;;19.04;69.30
79540;BME280;68991;52.122;5.406;2023-09-08T06:20:44;101869.47;;;19.09;69.42
79540;BME280;68991;52.122;5.406;2023-09-08T06:23:11;101865.31;;;19.16;69.48
79540;BME280;68991;52.122;5.406;2023-09-08T06:25:37;101870.34;;;19.22;69.35
79540;BME280;68991;52.122;5.406;2023-09-08T06:28:04;101866.44;;;19.26;69.85
79540;BME280;68991;52.122;5.406;2023-09-08T06:30:30;101865.13;;;19.31;70.02
79540;BME280;68991;52.122;5.406;2023-09-08T06:32:57;101864.72;;;19.37;69.98
79540;BME280;68991;52.122;5.406;2023-09-08T06:35:25;101862.53;;;19.43;69.85
79540;BME280;68991;52.122;5.406;2023-09-08T06:37:52;101867.03;;;19.56;69.62
79540;BME280;68991;52.122;5.406;2023-09-08T06:40:18;101872.91;;;19.75;69.11
79540;BME280;68991;52.122;5.406;2023-09-08T06:42:45;101871.69;;;19.92;68.17
79540;BME280;68991;52.122;5.406;2023-09-08T06:45:11;101876.38;;;20.03;68.25
79540;BME280;68991;52.122;5.406;2023-09-08T06:47:39;101872.13;;;20.11;67.83
79540;BME280;68991;52.122;5.406;2023-09-08T06:50:06;101869.81;;;20.18;68.16
79540;BME280;68991;52.122;5.406;2023-09-08T06:52:33;101877.44;;;20.25;68.06
79540;BME280;68991;52.122;5.406;2023-09-08T06:54:59;101873.28;;;20.32;67.87
79540;BME280;68991;52.122;5.406;2023-09-08T06:57:26;101874.69;;;20.38;67.07
79540;BME280;68991;52.122;5.406;2023-09-08T06:59:53;101875.09;;;20.45;67.22
79540;BME280;68991;52.122;5.406;2023-09-08T07:02:19;101869.19;;;20.51;67.23
79540;BME280;68991;52.122;5.406;2023-09-08T07:04:47;101872.34;;;20.57;67.33
79540;BME280;68991;52.122;5.406;2023-09-08T07:07:13;101879.19;;;20.63;67.32
79540;BME280;68991;52.122;5.406;2023-09-08T07:09:40;101882.44;;;20.68;67.52
79540;BME280;68991;52.122;5.406;2023-09-08T07:12:06;101879.38;;;20.72;67.06
79540;BME280;68991;52.122;5.406;2023-09-08T07:14:33;101879.78;;;20.79;67.07
79540;BME280;68991;52.122;5.406;2023-09-08T07:17:01;101876.69;;;20.83;67.29
79540;BME280;68991;52.122;5.406;2023-09-08T07:19:27;101876.22;;;20.90;67.08
79540;BME280;68991;52.122;5.406;2023-09-08T07:21:54;101871.41;;;20.93;67.07
79540;BME280;68991;52.122;5.406;2023-09-08T07:24:21;101874.63;;;20.98;66.64
79540;BME280;68991;52.122;5.406;2023-09-08T07:26:47;101872.44;;;21.03;66.88
79540;BME280;68991;52.122;5.406;2023-09-08T07:29:14;101879.41;;;21.07;66.94
79540;BME280;68991;52.122;5.406;2023-09-08T07:31:40;101876.34;;;21.12;66.44
79540;BME280;68991;52.122;5.406;2023-09-08T07:34:07;101877.84;;;21.16;66.36
79540;BME280;68991;52.122;5.406;2023-09-08T07:36:35;101883.84;;;21.21;66.75
79540;BME280;68991;52.122;5.406;2023-09-08T07:39:02;101884.34;;;21.26;65.91
79540;BME280;68991;52.122;5.406;2023-09-08T07:41:28;101886.72;;;21.30;66.19
79540;BME280;68991;52.122;5.406;2023-09-08T07:43:55;101877.41;;;21.33;66.04
79540;BME280;68991;52.122;5.406;2023-09-08T07:46:21;101878.03;;;21.37;65.98
79540;BME280;68991;52.122;5.406;2023-09-08T07:48:48;101885.88;;;21.41;65.35
79540;BME280;68991;52.122;5.406;2023-09-08T07:51:14;101882.91;;;21.44;65.42
79540;BME280;68991;52.122;5.406;2023-09-08T07:53:41;101889.00;;;21.48;65.33
79540;BME280;68991;52.122;5.406;2023-09-08T07:56:07;101879.56;;;21.52;65.21
79540;BME280;68991;52.122;5.406;2023-09-08T07:58:34;101879.31;;;21.55;65.44
79540;BME280;68991;52.122;5.406;2023-09-08T08:01:01;101881.69;;;21.59;65.08
79540;BME280;68991;52.122;5.406;2023-09-08T08:03:27;101881.44;;;21.62;65.23
79540;BME280;68991;52.122;5.406;2023-09-08T08:05:56;101877.47;;;21.66;64.62
79540;BME280;68991;52.122;5.406;2023-09-08T08:08:23;101877.22;;;21.69;65.04
79540;BME280;68991;52.122;5.406;2023-09-08T08:10:49;101881.56;;;21.72;64.68
79540;BME280;68991;52.122;5.406;2023-09-08T08:13:16;101872.13;;;21.76;64.44
79540;BME280;68991;52.122;5.406;2023-09-08T08:15:43;101871.03;;;21.78;64.50
79540;BME280;68991;52.122;5.406;2023-09-08T08:18:11;101877.97;;;21.82;64.38
79540;BME280;68991;52.122;5.406;2023-09-08T08:20:38;101869.53;;;21.86;64.21
79540;BME280;68991;52.122;5.406;2023-09-08T08:23:06;101875.63;;;21.89;64.34
79540;BME280;68991;52.122;5.406;2023-09-08T08:25:33;101874.53;;;21.92;63.97
79540;BME280;68991;52.122;5.406;2023-09-08T08:28:00;101870.56;;;21.96;64.11
79540;BME280;68991;52.122;5.406;2023-09-08T08:30:28;101869.44;;;21.98;64.13
79540;BME280;68991;52.122;5.406;2023-09-08T08:32:54;101861.84;;;22.02;63.84
79540;BME280;68991;52.122;5.406;2023-09-08T08:35:21;101861.59;;;22.05;63.63
79540;BME280;68991;52.122;5.406;2023-09-08T08:37:48;101861.34;;;22.08;63.72
79540;BME280;68991;52.122;5.406;2023-09-08T08:40:14;101867.44;;;22.11;63.83
79540;BME280;68991;52.122;5.406;2023-09-08T08:42:41;101869.81;;;22.16;63.75
79540;BME280;68991;52.122;5.406;2023-09-08T08:45:08;101865.94;;;22.18;63.80
79540;BME280;68991;52.122;5.406;2023-09-08T08:47:35;101870.31;;;22.21;63.34
79540;BME280;68991;52.122;5.406;2023-09-08T08:50:02;101861.84;;;22.24;63.48
79540;BME280;68991;52.122;5.406;2023-09-08T08:52:30;101860.69;;;22.26;63.30
79540;BME280;68991;52.122;5.406;2023-09-08T08:54:57;101860.44;;;22.29;63.67
79540;BME280;68991;52.122;5.406;2023-09-08T08:57:24;101867.41;;;22.33;63.30
79540;BME280;68991;52.122;5.406;2023-09-08T08:59:54;101869.03;;;22.36;63.03
79540;BME280;68991;52.122;5.406;2023-09-08T09:02:21;101866.03;;;22.39;63.42
79540;BME280;68991;52.122;5.406;2023-09-08T09:04:48;101866.53;;;22.44;63.50
79540;BME280;68991;52.122;5.406;2023-09-08T09:07:18;101870.75;;;22.48;63.16
79540;BME280;68991;52.122;5.406;2023-09-08T09:09:45;101864.03;;;22.52;63.19
79540;BME280;68991;52.122;5.406;2023-09-08T09:12:12;101871.97;;;22.55;63.16
79540;BME280;68991;52.122;5.406;2023-09-08T09:14:44;101866.25;;;22.58;63.07
79540;BME280;68991;52.122;5.406;2023-09-08T09:17:13;101870.47;;;22.62;62.97
79540;BME280;68991;52.122;5.406;2023-09-08T09:19:40;101869.22;;;22.66;63.08
79540;BME280;68991;52.122;5.406;2023-09-08T09:22:07;101867.13;;;22.70;63.28
79540;BME280;68991;52.122;5.406;2023-09-08T09:24:39;101870.47;;;22.73;62.83
79540;BME280;68991;52.122;5.406;2023-09-08T09:27:12;101864.72;;;22.76;62.92
79540;BME280;68991;52.122;5.406;2023-09-08T09:29:50;101861.72;;;22.79;62.96
79540;BME280;68991;52.122;5.406;2023-09-08T09:32:23;101860.47;;;22.84;62.85
79540;BME280;68991;52.122;5.406;2023-09-08T09:34:53;101867.44;;;22.88;62.85
79540;BME280;68991;52.122;5.406;2023-09-08T09:37:21;101862.56;;;22.91;62.88
79540;BME280;68991;52.122;5.406;2023-09-08T09:39:49;101864.03;;;22.95;62.88
79540;BME280;68991;52.122;5.406;2023-09-08T09:42:17;101864.66;;;22.99;62.96
79540;BME280;68991;52.122;5.406;2023-09-08T09:44:44;101862.63;;;23.01;62.76
79540;BME280;68991;52.122;5.406;2023-09-08T09:47:13;101861.38;;;23.05;62.63
79540;BME280;68991;52.122;5.406;2023-09-08T09:49:48;101862.09;;;23.07;62.71
79540;BME280;68991;52.122;5.406;2023-09-08T09:52:22;101864.56;;;23.10;62.86
79540;BME280;68991;52.122;5.406;2023-09-08T09:54:58;101867.06;;;23.13;62.58
79540;BME280;68991;52.122;5.406;2023-09-08T09:57:25;101864.06;;;23.16;62.50
79540;BME280;68991;52.122;5.406;2023-09-08T09:59:52;101864.78;;;23.18;62.68
79540;BME280;68991;52.122;5.406;2023-09-08T10:02:20;101865.53;;;23.20;62.74
79540;BME280;68991;52.122;5.406;2023-09-08T10:04:49;101859.78;;;23.23;63.06
79540;BME280;68991;52.122;5.406;2023-09-08T10:07:17;101860.50;;;23.25;63.14
79540;BME280;68991;52.122;5.406;2023-09-08T10:09:44;101856.50;;;23.29;63.54
79540;BME280;68991;52.122;5.406;2023-09-08T10:12:13;101859.13;;;23.30;63.43
79540;BME280;68991;52.122;5.406;2023-09-08T10:14:42;101855.22;;;23.33;63.27
79540;BME280;68991;52.122;5.406;2023-09-08T10:17:13;101864.94;;;23.37;63.18
79540;BME280;68991;52.122;5.406;2023-09-08T10:19:45;101863.06;;;23.38;62.75
79540;BME280;68991;52.122;5.406;2023-09-08T10:22:19;101850.94;;;23.40;63.04
79540;BME280;68991;52.122;5.406;2023-09-08T10:24:47;101852.44;;;23.44;62.98
79540;BME280;68991;52.122;5.406;2023-09-08T10:27:15;101860.41;;;23.47;62.96
79540;BME280;68991;52.122;5.406;2023-09-08T10:29:45;101851.03;;;23.50;63.17
79540;BME280;68991;52.122;5.406;2023-09-08T10:32:12;101858.16;;;23.52;63.06
79540;BME280;68991;52.122;5.406;2023-09-08T10:34:40;101848.00;;;23.53;62.90
79540;BME280;68991;52.122;5.406;2023-09-08T10:37:20;101856.13;;;23.54;62.95
79540;BME280;68991;52.122;5.406;2023-09-08T10:39:47;101849.47;;;23.57;63.06
79540;BME280;68991;52.122;5.406;2023-09-08T10:44:44;101843.72;;;23.60;63.11
79540;BME280;68991;52.122;5.406;2023-09-08T10:47:10;101838.09;;;23.61;62.63
79540;BME280;68991;52.122;5.406;2023-09-08T10:49:40;101840.84;;;23.61;62.73
79540;BME280;68991;52.122;5.406;2023-09-08T10:52:10;101837.81;;;23.64;62.91
79540;BME280;68991;52.122;5.406;2023-09-08T10:54:44;101841.31;;;23.66;62.98
79540;BME280;68991;52.122;5.406;2023-09-08T10:57:16;101842.91;;;23.69;62.80
79540;BME280;68991;52.122;5.406;2023-09-08T11:00:02;101844.50;;;23.71;62.39
79540;BME280;68991;52.122;5.406;2023-09-08T11:02:48;101849.88;;;23.73;62.32
79540;BME280;68991;52.122;5.406;2023-09-08T11:05:16;101845.09;;;23.75;62.16
79540;BME280;68991;52.122;5.406;2023-09-08T11:07:43;101848.59;;;23.77;62.23
79540;BME280;68991;52.122;5.406;2023-09-08T11:10:12;101839.34;;;23.78;62.38
79540;BME280;68991;52.122;5.406;2023-09-08T11:12:39;101845.69;;;23.78;62.47
79540;BME280;68991;52.122;5.406;2023-09-08T11:15:07;101840.19;;;23.78;62.34
79540;BME280;68991;52.122;5.406;2023-09-08T11:17:37;101841.78;;;23.81;62.61
79540;BME280;68991;52.122;5.406;2023-09-08T11:20:06;101836.19;;;23.83;62.52
79540;BME280;68991;52.122;5.406;2023-09-08T11:22:37;101845.13;;;23.85;62.73
79540;BME280;68991;52.122;5.406;2023-09-08T11:25:06;101842.28;;;23.86;62.58
79540;BME280;68991;52.122;5.406;2023-09-08T11:27:33;101842.16;;;23.88;62.31
79540;BME280;68991;52.122;5.406;2023-09-08T11:30:00;101844.91;;;23.88;62.06
79540;BME280;68991;52.122;5.406;2023-09-08T11:32:34;101845.72;;;23.88;62.06
79540;BME280;68991;52.122;5.406;2023-09-08T11:35:05;101843.84;;;23.89;62.15
79540;BME280;68991;52.122;5.406;2023-09-08T11:37:40;101849.34;;;23.89;62.36
79540;BME280;68991;52.122;5.406;2023-09-08T11:40:08;101844.72;;;23.89;62.59
79540;BME280;68991;52.122;5.406;2023-09-08T11:42:36;101850.09;;;23.91;62.57
79540;BME280;68991;52.122;5.406;2023-09-08T11:45:04;101844.63;;;23.91;62.69
79540;BME280;68991;52.122;5.406;2023-09-08T11:47:31;101840.84;;;23.92;62.76
79540;BME280;68991;52.122;5.406;2023-09-08T11:49:57;101843.59;;;23.92;62.76
79540;BME280;68991;52.122;5.406;2023-09-08T11:52:24;101839.84;;;23.93;62.45
79540;BME280;68991;52.122;5.406;2023-09-08T11:54:51;101839.84;;;23.93;62.63
79540;BME280;68991;52.122;5.406;2023-09-08T11:57:33;101838.84;;;23.94;62.79
79540;BME280;68991;52.122;5.406;2023-09-08T12:00:00;101840.59;;;23.95;62.96
79540;BME280;68991;52.122;5.406;2023-09-08T12:02:35;101847.94;;;23.94;62.57
79540;BME280;68991;52.122;5.406;2023-09-08T12:05:03;101839.56;;;23.96;62.76
79540;BME280;68991;52.122;5.406;2023-09-08T12:07:30;101838.69;;;23.95;62.43
79540;BME280;68991;52.122;5.406;2023-09-08T12:09:56;101839.56;;;23.96;62.79
79540;BME280;68991;52.122;5.406;2023-09-08T12:12:25;101832.06;;;23.98;62.83
79540;BME280;68991;52.122;5.406;2023-09-08T12:14:53;101827.44;;;23.98;62.54
79540;BME280;68991;52.122;5.406;2023-09-08T12:17:20;101835.53;;;24.00;63.00
79540;BME280;68991;52.122;5.406;2023-09-08T12:19:51;101829.03;;;24.01;62.71
79540;BME280;68991;52.122;5.406;2023-09-08T12:22:18;101833.53;;;24.02;62.78
79540;BME280;68991;52.122;5.406;2023-09-08T12:27:23;101832.38;;;24.04;63.08
79540;BME280;68991;52.122;5.406;2023-09-08T12:29:59;101830.63;;;24.03;62.83
79540;BME280;68991;52.122;5.406;2023-09-08T12:32:31;101825.00;;;24.05;62.52
79540;BME280;68991;52.122;5.406;2023-09-08T12:35:00;101824.84;;;24.06;62.90
79540;BME280;68991;52.122;5.406;2023-09-08T12:37:30;101823.72;;;24.09;63.05
79540;BME280;68991;52.122;5.406;2023-09-08T12:39:58;101819.06;;;24.09;62.76
79540;BME280;68991;52.122;5.406;2023-09-08T12:42:27;101824.31;;;24.12;63.06
79540;BME280;68991;52.122;5.406;2023-09-08T12:44:57;101828.69;;;24.15;63.02
79540;BME280;68991;52.122;5.406;2023-09-08T12:47:23;101821.16;;;24.17;63.31
79540;BME280;68991;52.122;5.406;2023-09-08T12:49:50;101816.53;;;24.17;63.01
79540;BME280;68991;52.122;5.406;2023-09-08T12:52:18;101820.03;;;24.19;62.72
79540;BME280;68991;52.122;5.406;2023-09-08T12:54:44;101820.03;;;24.19;62.93
79540;BME280;68991;52.122;5.406;2023-09-08T12:57:11;101813.50;;;24.20;62.71
79540;BME280;68991;52.122;5.406;2023-09-08T12:59:37;101812.50;;;24.21;62.79